Las Cruces International Airport
KLRU : now visible

Airfield :











YOU CAN JOIN US ON...

 
LOGIN :

Register | Disclaimer

   EN    FR    IT 

 









Legend :    VFR   Marginal VFR   IFR   Intensive IFR   Very Intensive IFR
Visi :
Ceiling :
>= 8 km
>= 3000ft
5 to 8 km
1000 to 3000 ft
1500m to 5 km
500 to 1000 ft
800 to 1500m
200 to 500 ft
< 800m
< 200 ft
Symbols :   Thunderstorms  Fog  Heavy snow  Heavy precipitations  Wind > 20 kt






- Airport Elevation : 4456 ft
- IATA code : LRU


KLRU - Las Cruces International

CURRENT METAR :
  • 300915Z AUTO 00000KT 10SM CLR 14/00 A3016 RMK AO2 T01401001

EXPIRED METARs :
  • 300855Z AUTO 00000KT 10SM CLR 14/00 A3016 RMK AO2 T01361004
  • 300835Z AUTO 00000KT 10SM CLR 14/00 A3016 RMK AO2 T01401004
  • 300815Z AUTO 06003KT 10SM CLR 15/00 A3016 RMK AO2 T01451004
  • 300755Z AUTO 00000KT 10SM CLR 15/00 A3016 RMK AO2 T01451005
  • 300735Z AUTO 00000KT 10SM CLR 16/M01 A3017 RMK AO2 T01601006
  • 300715Z AUTO 00000KT 10SM CLR 18/00 A3017 RMK AO2 T01790000
  • 300655Z AUTO 16003KT 10SM CLR 19/00 A3017 RMK AO2 T01850000
  • 300635Z AUTO 00000KT 10SM CLR 18/00 A3018 RMK AO2 T01770003

TAF KLRU
Valid from the 30 at 06:00 until the 01 at 06:00 UTC


300537Z 3006/0106 VRB05KT P6SM BKN250
FM301900 13009G19KT P6SM BKN250
FM010100 12008KT P6SM BKN250
KZAB FIR / North America



MET'MAP, your aeronautical weather chart ! - Copyright ORBIFLY December 2007 - Disclaimer

ORBIFLY MET'MAP TEAM :

Programming & Development : Alexandra Zaïnal
Original concept : Baudouin d'Aumeries
Technical & hardware support : Manuel Goepfert
Assistance : Marc-Olivier Méhu




SOURCES & CREDITS :

   NOAA       Earth
Advisory